createdAt,value
2018-01-26T00:00:40.910Z,1007.8
2018-01-26T00:01:42.432Z,1007.8
2018-01-26T00:02:43.831Z,1007.8
2018-01-26T00:03:45.229Z,1007.8
2018-01-26T00:04:46.752Z,1007.8
2018-01-26T00:05:48.154Z,1007.8
2018-01-26T00:06:49.554Z,1007.7
2018-01-26T00:07:51.073Z,1007.7
2018-01-26T00:08:52.477Z,1007.7
2018-01-26T00:09:53.952Z,1007.7
2018-01-26T00:10:55.352Z,1007.7
2018-01-26T00:11:56.752Z,1007.7
2018-01-26T00:12:58.273Z,1007.7
2018-01-26T00:13:59.675Z,1007.7
2018-01-26T00:15:01.078Z,1007.7
2018-01-26T00:16:02.596Z,1007.7
2018-01-26T00:17:03.993Z,1007.7
2018-01-26T00:18:05.474Z,1007.7
2018-01-26T00:19:06.874Z,1007.7
2018-01-26T00:20:08.361Z,1007.7
2018-01-26T00:21:09.754Z,1007.6
2018-01-26T00:22:11.250Z,1007.6
2018-01-26T00:23:12.654Z,1007.7
2018-01-26T00:24:14.117Z,1007.6
2018-01-26T00:25:15.517Z,1007.7
2018-01-26T00:26:16.999Z,1007.6
2018-01-26T00:27:18.400Z,1007.7
2018-01-26T00:28:19.801Z,1007.6
2018-01-26T00:29:21.321Z,1007.6
2018-01-26T00:30:22.724Z,1007.6
2018-01-26T00:31:24.121Z,1007.6
2018-01-26T00:32:25.638Z,1007.6
2018-01-26T00:33:27.040Z,1007.6
2018-01-26T00:34:28.439Z,1007.7
2018-01-26T00:35:29.968Z,1007.6
2018-01-26T00:36:31.370Z,1007.6
2018-01-26T00:37:32.771Z,1007.6
2018-01-26T00:38:34.284Z,1007.7
2018-01-26T00:39:35.684Z,1007.7
2018-01-26T00:40:37.165Z,1007.7
2018-01-26T00:41:38.566Z,1007.6
2018-01-26T00:42:39.966Z,1007.6
2018-01-26T00:43:41.484Z,1007.6
2018-01-26T00:44:42.886Z,1007.6
2018-01-26T00:45:44.286Z,1007.5
2018-01-26T00:46:45.804Z,1007.6
2018-01-26T00:47:47.207Z,1007.6
2018-01-26T00:48:48.689Z,1007.6
2018-01-26T00:49:50.090Z,1007.6
2018-01-26T00:50:51.566Z,1007.6
2018-01-26T00:51:52.973Z,1007.7
2018-01-26T00:52:54.449Z,1007.6
2018-01-26T00:53:55.850Z,1007.7
2018-01-26T00:54:57.329Z,1007.6
2018-01-26T00:55:58.730Z,1007.6
2018-01-26T00:57:00.208Z,1007.6
2018-01-26T00:58:01.612Z,1007.6
2018-01-26T00:59:03.094Z,1007.6
2018-01-26T01:00:04.506Z,1007.6
2018-01-26T01:01:05.971Z,1007.6
2018-01-26T01:02:07.374Z,1007.5
2018-01-26T01:03:08.774Z,1007.6
2018-01-26T01:04:10.294Z,1007.5
2018-01-26T01:05:11.694Z,1007.5
2018-01-26T01:06:13.097Z,1007.5
2018-01-26T01:07:14.664Z,1007.5
2018-01-26T01:08:16.016Z,1007.6
2018-01-26T01:09:17.497Z,1007.6
2018-01-26T01:10:18.897Z,1007.7
2018-01-26T01:11:20.375Z,1007.6
2018-01-26T01:12:21.785Z,1007.6
2018-01-26T01:13:23.255Z,1007.6
2018-01-26T01:14:24.657Z,1007.6
2018-01-26T01:15:26.138Z,1007.7
2018-01-26T01:16:27.538Z,1007.7
2018-01-26T01:17:29.025Z,1007.7
2018-01-26T01:18:30.421Z,1007.6
2018-01-26T01:19:31.900Z,1007.6
2018-01-26T01:20:33.301Z,1007.7
2018-01-26T01:21:34.779Z,1007.6
2018-01-26T01:22:36.180Z,1007.6
2018-01-26T01:23:37.661Z,1007.7
2018-01-26T01:24:39.066Z,1007.7
2018-01-26T01:25:40.544Z,1007.7
2018-01-26T01:26:41.946Z,1007.7
2018-01-26T01:27:43.369Z,1007.7
2018-01-26T01:28:44.862Z,1007.8
2018-01-26T01:29:46.261Z,1007.7
2018-01-26T01:30:47.661Z,1007.7
2018-01-26T01:31:49.182Z,1007.7
2018-01-26T01:32:50.586Z,1007.7
2018-01-26T01:33:51.985Z,1007.7
2018-01-26T01:34:53.506Z,1007.8
2018-01-26T01:35:54.901Z,1007.8
2018-01-26T01:36:56.385Z,1007.8
2018-01-26T01:37:57.787Z,1007.8
2018-01-26T01:38:59.185Z,1007.8
2018-01-26T01:40:00.707Z,1007.8
2018-01-26T01:41:02.318Z,1007.8
2018-01-26T01:42:03.720Z,1007.8
2018-01-26T01:43:05.234Z,1007.7
2018-01-26T01:44:06.634Z,1007.7
2018-01-26T01:45:08.036Z,1007.7
2018-01-26T01:46:09.554Z,1007.7
2018-01-26T01:47:10.954Z,1007.6
2018-01-26T01:48:12.356Z,1007.7
2018-01-26T01:49:13.876Z,1007.7
2018-01-26T01:50:15.275Z,1007.6
2018-01-26T01:51:16.757Z,1007.7
2018-01-26T01:52:18.156Z,1007.7
2018-01-26T01:53:19.559Z,1007.7
2018-01-26T01:54:21.078Z,1007.7
2018-01-26T01:55:22.480Z,1007.7
2018-01-26T01:56:23.884Z,1007.7
2018-01-26T01:57:25.398Z,1007.7
2018-01-26T01:58:26.797Z,1007.8
2018-01-26T01:59:28.198Z,1007.7
2018-01-26T02:00:29.862Z,1007.7
2018-01-26T02:01:31.229Z,1007.7
2018-01-26T02:02:32.622Z,1007.7
2018-01-26T02:03:34.348Z,1007.6
2018-01-26T02:04:35.753Z,1007.6
2018-01-26T02:05:37.434Z,1007.7
2018-01-26T02:06:38.835Z,1007.7
2018-01-26T02:07:40.545Z,1007.7
2018-01-26T02:08:41.953Z,1007.7
2018-01-26T02:09:43.605Z,1007.8
2018-01-26T02:10:45.029Z,1007.8
2018-01-26T02:11:46.689Z,1007.7
2018-01-26T02:12:48.091Z,1007.8
2018-01-26T02:13:49.490Z,1007.7
2018-01-26T02:14:51.011Z,1007.8
2018-01-26T02:15:52.414Z,1007.8
2018-01-26T02:16:53.816Z,1007.7
2018-01-26T02:17:55.537Z,1007.7
2018-01-26T02:18:56.938Z,1007.7
2018-01-26T02:19:58.623Z,1007.7
2018-01-26T02:21:00.028Z,1007.7
2018-01-26T02:22:01.713Z,1007.7
2018-01-26T02:23:03.115Z,1007.7
2018-01-26T02:24:04.516Z,1007.7
2018-01-26T02:25:06.235Z,1007.7
2018-01-26T02:26:07.636Z,1007.8
2018-01-26T02:27:09.034Z,1007.8
2018-01-26T02:28:10.557Z,1007.8
2018-01-26T02:29:11.963Z,1007.8
2018-01-26T02:30:13.360Z,1007.8
2018-01-26T02:31:15.088Z,1007.8
2018-01-26T02:32:16.482Z,1007.8
2018-01-26T02:33:17.882Z,1007.8
2018-01-26T02:34:19.404Z,1007.8
2018-01-26T02:35:20.803Z,1007.9
2018-01-26T02:36:22.487Z,1007.7
2018-01-26T02:37:23.887Z,1007.8
2018-01-26T02:38:25.575Z,1007.8
2018-01-26T02:39:26.976Z,1007.8
2018-01-26T02:40:28.663Z,1007.8
2018-01-26T02:41:30.061Z,1007.8
2018-01-26T02:42:31.743Z,1007.8
2018-01-26T02:43:33.147Z,1007.8
2018-01-26T02:44:34.552Z,1007.8
2018-01-26T02:45:36.067Z,1007.8
2018-01-26T02:46:37.472Z,1007.8
2018-01-26T02:47:38.867Z,1007.8
2018-01-26T02:48:40.386Z,1007.8
2018-01-26T02:49:41.789Z,1007.8
2018-01-26T02:50:43.190Z,1007.9
2018-01-26T02:51:44.709Z,1007.8
2018-01-26T02:52:46.110Z,1007.9
2018-01-26T02:53:47.516Z,1007.8
2018-01-26T02:54:49.034Z,1007.9
2018-01-26T02:55:50.430Z,1007.9
2018-01-26T02:56:51.837Z,1007.9
2018-01-26T02:57:53.352Z,1007.9
2018-01-26T02:58:54.756Z,1008.0
2018-01-26T02:59:56.158Z,1007.9
2018-01-26T03:00:57.892Z,1008.0
2018-01-26T03:01:59.292Z,1008.0
2018-01-26T03:03:00.963Z,1008.1
2018-01-26T03:04:02.368Z,1008.1
2018-01-26T03:05:04.051Z,1008.1
2018-01-26T03:06:05.450Z,1008.1
2018-01-26T03:07:07.137Z,1008.0
2018-01-26T03:08:08.543Z,1008.0
2018-01-26T03:09:09.936Z,1007.9
2018-01-26T03:10:11.458Z,1008.0
2018-01-26T03:11:12.860Z,1007.9
2018-01-26T03:12:14.262Z,1008.0
2018-01-26T03:13:15.781Z,1008.0
2018-01-26T03:14:17.180Z,1007.9
2018-01-26T03:15:18.584Z,1007.9
2018-01-26T03:16:20.101Z,1007.9
2018-01-26T03:17:21.502Z,1007.9
2018-01-26T03:18:22.905Z,1007.9
2018-01-26T03:19:24.422Z,1007.9
2018-01-26T03:20:25.822Z,1008.0
2018-01-26T03:21:27.507Z,1007.9
2018-01-26T03:22:28.910Z,1007.9
2018-01-26T03:23:30.596Z,1008.0
2018-01-26T03:24:31.988Z,1008.0
2018-01-26T03:25:33.677Z,1008.0
2018-01-26T03:26:35.080Z,1008.0
2018-01-26T03:27:36.763Z,1008.0
2018-01-26T03:28:38.163Z,1008.0
2018-01-26T03:29:39.564Z,1008.0
2018-01-26T03:30:41.097Z,1008.0
2018-01-26T03:31:42.548Z,1008.0
2018-01-26T03:32:43.942Z,1008.1
2018-01-26T03:33:45.613Z,1008.1
2018-01-26T03:34:47.013Z,1008.2
2018-01-26T03:35:49.075Z,1008.1
2018-01-26T03:36:50.479Z,1008.1
2018-01-26T03:37:51.987Z,1008.1
2018-01-26T03:38:53.385Z,1008.1
2018-01-26T03:39:55.074Z,1008.1
2018-01-26T03:40:56.470Z,1008.1
2018-01-26T03:41:58.184Z,1008.0
2018-01-26T03:42:59.586Z,1008.1
2018-01-26T03:44:01.252Z,1008.1
2018-01-26T03:45:02.639Z,1008.0
2018-01-26T03:46:04.333Z,1008.1
2018-01-26T03:47:05.730Z,1008.1
2018-01-26T03:48:07.418Z,1008.1
2018-01-26T03:49:08.814Z,1008.1
2018-01-26T03:50:10.501Z,1008.1
2018-01-26T03:51:11.902Z,1008.2
2018-01-26T03:52:13.589Z,1008.2
2018-01-26T03:53:14.989Z,1008.2
2018-01-26T03:54:16.672Z,1008.2
2018-01-26T03:55:18.069Z,1008.2
2018-01-26T03:56:19.472Z,1008.2
2018-01-26T03:57:21.010Z,1008.2
2018-01-26T03:58:22.415Z,1008.2
2018-01-26T03:59:23.812Z,1008.2
2018-01-26T04:00:25.524Z,1008.3
2018-01-26T04:01:26.916Z,1008.3
2018-01-26T04:02:28.319Z,1008.3
2018-01-26T04:03:29.837Z,1008.3
2018-01-26T04:04:31.237Z,1008.3
2018-01-26T04:05:32.638Z,1008.3
2018-01-26T04:06:34.163Z,1008.3
2018-01-26T04:07:35.566Z,1008.3
2018-01-26T04:08:37.245Z,1008.4
2018-01-26T04:09:38.640Z,1008.3
2018-01-26T04:10:40.330Z,1008.3
2018-01-26T04:11:41.730Z,1008.3
2018-01-26T04:12:43.418Z,1008.3
2018-01-26T04:13:44.813Z,1008.3
2018-01-26T04:14:46.502Z,1008.3
2018-01-26T04:15:47.901Z,1008.3
2018-01-26T04:16:49.586Z,1008.3
2018-01-26T04:17:50.985Z,1008.3
2018-01-26T04:18:52.673Z,1008.3
2018-01-26T04:19:54.092Z,1008.3
2018-01-26T04:20:55.490Z,1008.3
2018-01-26T04:21:56.993Z,1008.3
2018-01-26T04:22:58.395Z,1008.4
2018-01-26T04:23:59.797Z,1008.3
2018-01-26T04:25:01.317Z,1008.4
2018-01-26T04:26:02.716Z,1008.4
2018-01-26T04:27:04.402Z,1008.4
2018-01-26T04:28:05.800Z,1008.4
2018-01-26T04:29:07.489Z,1008.4
2018-01-26T04:30:08.885Z,1008.4
2018-01-26T04:31:10.571Z,1008.4
2018-01-26T04:32:11.970Z,1008.4
2018-01-26T04:33:13.658Z,1008.4
2018-01-26T04:34:15.060Z,1008.5
2018-01-26T04:35:16.744Z,1008.5
2018-01-26T04:36:18.142Z,1008.5
2018-01-26T04:37:19.860Z,1008.5
2018-01-26T04:38:21.259Z,1008.5
2018-01-26T04:39:22.915Z,1008.6
2018-01-26T04:40:24.314Z,1008.6
2018-01-26T04:41:25.718Z,1008.6
2018-01-26T04:42:27.236Z,1008.7
2018-01-26T04:43:28.635Z,1008.7
2018-01-26T04:44:30.035Z,1008.6
2018-01-26T04:45:31.558Z,1008.7
2018-01-26T04:46:32.958Z,1008.7
2018-01-26T04:47:34.642Z,1008.6
2018-01-26T04:48:36.043Z,1008.7
2018-01-26T04:49:37.727Z,1008.6
2018-01-26T04:50:39.128Z,1008.5
2018-01-26T04:51:40.859Z,1008.6
2018-01-26T04:52:42.256Z,1008.6
2018-01-26T04:53:43.898Z,1008.6
2018-01-26T04:54:45.306Z,1008.7
2018-01-26T04:55:46.708Z,1008.7
2018-01-26T04:56:48.220Z,1008.7
2018-01-26T04:57:49.618Z,1008.7
2018-01-26T04:58:51.021Z,1008.7
2018-01-26T04:59:52.540Z,1008.7
2018-01-26T05:00:53.962Z,1008.7
2018-01-26T05:01:55.365Z,1008.8
2018-01-26T05:02:56.861Z,1008.8
2018-01-26T05:03:58.258Z,1008.7
2018-01-26T05:04:59.717Z,1008.6
2018-01-26T05:06:01.395Z,1008.7
2018-01-26T05:07:02.794Z,1008.7
2018-01-26T05:08:04.198Z,1008.7
2018-01-26T05:09:05.709Z,1008.7
2018-01-26T05:10:07.108Z,1008.7
2018-01-26T05:11:08.504Z,1008.7
2018-01-26T05:12:10.031Z,1008.8
2018-01-26T05:13:11.428Z,1008.8
2018-01-26T05:14:13.116Z,1008.8
2018-01-26T05:15:14.535Z,1008.8
2018-01-26T05:16:16.200Z,1008.8
2018-01-26T05:17:17.604Z,1008.8
2018-01-26T05:18:19.289Z,1008.8
2018-01-26T05:19:20.689Z,1008.8
2018-01-26T05:20:22.373Z,1008.8
2018-01-26T05:21:23.776Z,1008.7
2018-01-26T05:22:25.458Z,1008.8
2018-01-26T05:23:26.860Z,1008.7
2018-01-26T05:24:28.541Z,1008.7
2018-01-26T05:25:29.940Z,1008.8
2018-01-26T05:26:31.631Z,1008.8
2018-01-26T05:27:33.032Z,1008.7
2018-01-26T05:28:34.714Z,1008.7
2018-01-26T05:29:36.116Z,1008.8
2018-01-26T05:30:37.799Z,1008.9
2018-01-26T05:31:39.207Z,1008.9
2018-01-26T05:32:40.885Z,1008.9
2018-01-26T05:33:42.284Z,1008.9
2018-01-26T05:34:44.030Z,1008.9
2018-01-26T05:35:45.392Z,1009.0
2018-01-26T05:36:47.057Z,1009.0
2018-01-26T05:37:48.457Z,1009.0
2018-01-26T05:38:50.144Z,1009.0
2018-01-26T05:39:51.542Z,1009.1
2018-01-26T05:40:53.228Z,1009.1
2018-01-26T05:41:54.629Z,1009.1
2018-01-26T05:42:56.314Z,1009.1
2018-01-26T05:43:57.715Z,1009.1
2018-01-26T05:44:59.401Z,1009.1
2018-01-26T05:46:00.805Z,1009.1
2018-01-26T05:47:02.411Z,1009.1
2018-01-26T05:48:03.809Z,1009.1
2018-01-26T05:49:05.292Z,1009.2
2018-01-26T05:50:06.694Z,1009.1
2018-01-26T05:51:08.178Z,1009.1
2018-01-26T05:52:09.589Z,1009.2
2018-01-26T05:53:11.054Z,1009.1
2018-01-26T05:54:12.456Z,1009.1
2018-01-26T05:55:13.935Z,1009.1
2018-01-26T05:56:15.337Z,1009.1
2018-01-26T05:57:16.815Z,1009.1
2018-01-26T05:58:18.215Z,1009.1
2018-01-26T05:59:19.695Z,1009.2
2018-01-26T06:00:21.099Z,1009.1
2018-01-26T06:01:22.504Z,1009.1
2018-01-26T06:02:24.025Z,1009.1
2018-01-26T06:03:25.413Z,1009.1
2018-01-26T06:04:26.813Z,1009.1
2018-01-26T06:05:28.340Z,1009.1
2018-01-26T06:06:29.741Z,1009.1
2018-01-26T06:07:31.223Z,1009.1
2018-01-26T06:08:32.623Z,1009.1
2018-01-26T06:09:34.102Z,1009.1
2018-01-26T06:10:35.500Z,1009.1
2018-01-26T06:11:36.899Z,1009.1
2018-01-26T06:12:38.424Z,1009.1
2018-01-26T06:13:40.207Z,1009.1
2018-01-26T06:14:41.610Z,1009.1
2018-01-26T06:15:43.156Z,1009.2
2018-01-26T06:16:44.570Z,1009.2
2018-01-26T06:17:46.036Z,1009.2
2018-01-26T06:18:47.436Z,1009.3
2018-01-26T06:19:48.918Z,1009.3
2018-01-26T06:20:50.319Z,1009.4
2018-01-26T06:21:51.800Z,1009.3
2018-01-26T06:22:53.200Z,1009.4
2018-01-26T06:23:54.680Z,1009.4
2018-01-26T06:24:56.080Z,1009.4
2018-01-26T06:25:57.564Z,1009.5
2018-01-26T06:26:58.960Z,1009.5
2018-01-26T06:28:00.360Z,1009.5
2018-01-26T06:29:01.882Z,1009.4
2018-01-26T06:30:03.285Z,1009.4
2018-01-26T06:31:04.675Z,1009.5
2018-01-26T06:32:06.205Z,1009.5
2018-01-26T06:33:07.605Z,1009.5
2018-01-26T06:34:09.086Z,1009.5
2018-01-26T06:35:10.486Z,1009.4
2018-01-26T06:36:11.966Z,1009.4
2018-01-26T06:37:13.367Z,1009.4
2018-01-26T06:38:14.766Z,1009.4
2018-01-26T06:39:16.287Z,1009.4
2018-01-26T06:40:17.695Z,1009.3
2018-01-26T06:41:19.099Z,1009.3
2018-01-26T06:42:20.609Z,1009.3
2018-01-26T06:43:22.016Z,1009.3
2018-01-26T06:44:23.490Z,1009.3
2018-01-26T06:45:24.890Z,1009.4
2018-01-26T06:46:26.375Z,1009.4
2018-01-26T06:47:27.772Z,1009.4
2018-01-26T06:48:29.177Z,1009.5
2018-01-26T06:49:30.693Z,1009.5
2018-01-26T06:50:32.097Z,1009.6
2018-01-26T06:51:33.500Z,1009.7
2018-01-26T06:52:35.015Z,1009.6
2018-01-26T06:53:36.419Z,1009.7
2018-01-26T06:54:37.830Z,1009.7
2018-01-26T06:55:39.336Z,1009.7
2018-01-26T06:56:40.735Z,1009.7
2018-01-26T06:57:42.136Z,1009.7
2018-01-26T06:58:43.658Z,1009.7
2018-01-26T06:59:45.056Z,1009.8
2018-01-26T07:00:46.539Z,1009.8
2018-01-26T07:01:47.942Z,1009.8
2018-01-26T07:02:49.420Z,1009.8
2018-01-26T07:03:50.820Z,1009.9
2018-01-26T07:04:52.302Z,1009.9
2018-01-26T07:05:53.701Z,1009.9
2018-01-26T07:06:55.183Z,1009.8
2018-01-26T07:07:56.581Z,1009.9
2018-01-26T07:08:58.450Z,1009.9
2018-01-26T07:09:59.852Z,1009.8
2018-01-26T07:11:01.418Z,1009.8
2018-01-26T07:12:02.824Z,1009.9
2018-01-26T07:13:04.224Z,1009.9
2018-01-26T07:14:05.769Z,1009.9
2018-01-26T07:15:07.142Z,1010.0
2018-01-26T07:16:08.542Z,1010.0
2018-01-26T07:17:09.953Z,1010.0
2018-01-26T07:18:11.355Z,1010.0
2018-01-26T07:19:12.940Z,1010.1
2018-01-26T07:20:14.342Z,1010.2
2018-01-26T07:21:16.200Z,1010.2
2018-01-26T07:22:17.605Z,1010.2
2018-01-26T07:23:19.111Z,1010.2
2018-01-26T07:24:20.513Z,1010.2
2018-01-26T07:25:22.139Z,1010.3
2018-01-26T07:26:23.554Z,1010.2
2018-01-26T07:27:24.955Z,1010.3
2018-01-26T07:28:26.519Z,1010.3
2018-01-26T07:29:27.921Z,1010.3
2018-01-26T07:30:29.324Z,1010.4
2018-01-26T07:31:30.844Z,1010.4
2018-01-26T07:32:32.245Z,1010.4
2018-01-26T07:33:33.723Z,1010.4
2018-01-26T07:34:35.123Z,1010.4
2018-01-26T07:35:36.602Z,1010.3
2018-01-26T07:36:38.007Z,1010.4
2018-01-26T07:37:39.484Z,1010.4
2018-01-26T07:38:40.887Z,1010.4
2018-01-26T07:39:42.367Z,1010.4
2018-01-26T07:40:43.772Z,1010.4
2018-01-26T07:41:45.249Z,1010.5
2018-01-26T07:42:46.645Z,1010.5
2018-01-26T07:43:48.050Z,1010.6
2018-01-26T07:44:49.566Z,1010.6
2018-01-26T07:45:50.971Z,1010.5
2018-01-26T07:46:52.375Z,1010.6
2018-01-26T07:47:54.915Z,1010.6
2018-01-26T07:48:56.315Z,1010.6
2018-01-26T07:49:57.719Z,1010.6
2018-01-26T07:50:59.234Z,1010.7
2018-01-26T07:52:00.637Z,1010.7
2018-01-26T07:53:02.048Z,1010.7
2018-01-26T07:54:03.554Z,1010.7
2018-01-26T07:55:04.968Z,1010.7
2018-01-26T07:56:06.640Z,1010.7
2018-01-26T07:57:08.044Z,1010.8
2018-01-26T07:58:09.536Z,1010.7
2018-01-26T07:59:10.945Z,1010.8
2018-01-26T08:00:12.605Z,1010.8
2018-01-26T08:01:14.011Z,1010.8
2018-01-26T08:02:15.413Z,1010.8
2018-01-26T08:03:16.810Z,1010.9
2018-01-26T08:04:18.212Z,1010.9
2018-01-26T08:05:19.807Z,1011.0
2018-01-26T08:06:21.212Z,1010.9
2018-01-26T08:07:22.618Z,1010.9
2018-01-26T08:08:24.028Z,1011.0
2018-01-26T08:09:25.516Z,1010.9
2018-01-26T08:10:26.918Z,1010.9
2018-01-26T08:11:28.389Z,1010.9
2018-01-26T08:12:29.746Z,1010.9
2018-01-26T08:13:31.279Z,1010.9
2018-01-26T08:14:32.681Z,1011.0
2018-01-26T08:15:34.159Z,1011.0
2018-01-26T08:16:35.564Z,1010.9
2018-01-26T08:17:37.043Z,1010.9
2018-01-26T08:18:38.442Z,1010.9
2018-01-26T08:19:39.923Z,1010.9
2018-01-26T08:20:41.325Z,1010.9
2018-01-26T08:21:42.807Z,1010.8
2018-01-26T08:22:44.210Z,1010.8
2018-01-26T08:23:45.617Z,1010.9
2018-01-26T08:24:47.125Z,1010.9
2018-01-26T08:25:48.531Z,1010.9
2018-01-26T08:26:49.932Z,1010.9
2018-01-26T08:27:51.447Z,1010.9
2018-01-26T08:28:53.237Z,1011.0
2018-01-26T08:29:54.738Z,1010.9
2018-01-26T08:30:56.142Z,1010.9
2018-01-26T08:31:57.618Z,1010.9
2018-01-26T08:32:59.020Z,1011.0
2018-01-26T08:34:00.424Z,1011.0
2018-01-26T08:35:01.940Z,1011.0
2018-01-26T08:36:03.346Z,1011.1
2018-01-26T08:37:04.750Z,1011.0
2018-01-26T08:38:06.265Z,1011.0
2018-01-26T08:39:07.671Z,1011.0
2018-01-26T08:40:09.076Z,1010.9
2018-01-26T08:41:10.605Z,1011.0
2018-01-26T08:42:12.012Z,1011.1
2018-01-26T08:43:13.415Z,1011.0
2018-01-26T08:44:14.905Z,1011.0
2018-01-26T08:45:16.694Z,1011.1
2018-01-26T08:46:18.097Z,1011.0
2018-01-26T08:47:20.004Z,1011.1
2018-01-26T08:48:21.418Z,1011.1
2018-01-26T08:49:22.823Z,1011.1
2018-01-26T08:50:24.371Z,1011.1
2018-01-26T08:51:25.773Z,1011.1
2018-01-26T08:52:27.249Z,1011.2
2018-01-26T08:53:28.655Z,1011.2
2018-01-26T08:54:30.156Z,1011.2
2018-01-26T08:55:31.534Z,1011.2
2018-01-26T08:56:33.038Z,1011.2
2018-01-26T08:57:34.448Z,1011.2
2018-01-26T08:58:35.892Z,1011.2
2018-01-26T08:59:37.301Z,1011.2
2018-01-26T09:00:38.772Z,1011.2
2018-01-26T09:01:40.177Z,1011.2
2018-01-26T09:02:41.657Z,1011.1
2018-01-26T09:03:43.062Z,1011.1
2018-01-26T09:04:44.488Z,1011.2
2018-01-26T09:05:45.903Z,1011.2
2018-01-26T09:06:47.311Z,1011.3
2018-01-26T09:07:48.719Z,1011.3
2018-01-26T09:08:50.123Z,1011.3
2018-01-26T09:09:51.741Z,1011.4
2018-01-26T09:10:53.149Z,1011.3
2018-01-26T09:11:54.902Z,1011.4
2018-01-26T09:12:56.310Z,1011.4
2018-01-26T09:13:57.718Z,1011.4
2018-01-26T09:14:59.188Z,1011.4
2018-01-26T09:16:00.590Z,1011.5
2018-01-26T09:17:01.997Z,1011.4
2018-01-26T09:18:03.511Z,1011.5
2018-01-26T09:19:04.914Z,1011.4
2018-01-26T09:20:06.396Z,1011.5
2018-01-26T09:21:07.799Z,1011.5
2018-01-26T09:22:09.276Z,1011.5
2018-01-26T09:23:10.702Z,1011.5
2018-01-26T09:24:12.107Z,1011.5
2018-01-26T09:25:13.567Z,1011.5
2018-01-26T09:26:14.975Z,1011.5
2018-01-26T09:27:16.388Z,1011.6
2018-01-26T09:28:17.877Z,1011.6
2018-01-26T09:29:19.282Z,1011.6
2018-01-26T09:30:20.689Z,1011.6
2018-01-26T09:31:22.195Z,1011.6
2018-01-26T09:32:23.601Z,1011.7
2018-01-26T09:33:25.012Z,1011.6
2018-01-26T09:34:26.517Z,1011.6
2018-01-26T09:35:27.926Z,1011.7
2018-01-26T09:36:29.333Z,1011.7
2018-01-26T09:37:30.838Z,1011.7
2018-01-26T09:38:32.247Z,1011.7
2018-01-26T09:39:33.652Z,1011.7
2018-01-26T09:40:35.161Z,1011.7
2018-01-26T09:41:36.570Z,1011.7
2018-01-26T09:42:37.979Z,1011.8
2018-01-26T09:43:39.481Z,1011.8
2018-01-26T09:44:40.887Z,1011.9
2018-01-26T09:45:42.365Z,1011.9
2018-01-26T09:46:43.772Z,1011.9
2018-01-26T09:47:45.245Z,1011.9
2018-01-26T09:48:46.659Z,1012.0
2018-01-26T09:49:48.076Z,1012.0
2018-01-26T09:50:49.486Z,1012.0
2018-01-26T09:51:50.899Z,1012.0
2018-01-26T09:52:52.309Z,1012.0
2018-01-26T09:53:53.717Z,1012.0
2018-01-26T09:54:55.124Z,1012.1
2018-01-26T09:55:56.566Z,1012.1
2018-01-26T09:56:57.975Z,1012.1
2018-01-26T09:57:59.385Z,1012.1
2018-01-26T09:59:00.890Z,1012.1
2018-01-26T10:00:02.298Z,1012.1
2018-01-26T10:01:03.768Z,1012.2
2018-01-26T10:02:05.183Z,1012.2
2018-01-26T10:03:06.650Z,1012.1
2018-01-26T10:04:08.447Z,1012.2
2018-01-26T10:05:09.854Z,1012.1
2018-01-26T10:06:11.381Z,1012.2
2018-01-26T10:07:12.789Z,1012.1
2018-01-26T10:08:14.196Z,1012.1
2018-01-26T10:09:15.702Z,1012.1
2018-01-26T10:10:17.123Z,1012.1
2018-01-26T10:11:18.583Z,1012.1
2018-01-26T10:12:20.021Z,1012.2
2018-01-26T10:13:21.463Z,1012.2
2018-01-26T10:14:22.876Z,1012.2
2018-01-26T10:15:24.344Z,1012.2
2018-01-26T10:16:25.754Z,1012.2
2018-01-26T10:17:27.226Z,1012.2
2018-01-26T10:18:28.678Z,1012.2
2018-01-26T10:19:30.108Z,1012.2
2018-01-26T10:20:31.514Z,1012.2
2018-01-26T10:21:32.988Z,1012.3
2018-01-26T10:22:34.398Z,1012.3
2018-01-26T10:23:35.872Z,1012.3
2018-01-26T10:24:37.276Z,1012.3
2018-01-26T10:25:38.752Z,1012.3
2018-01-26T10:26:40.168Z,1012.4
2018-01-26T10:27:41.674Z,1012.3
2018-01-26T10:28:43.083Z,1012.3
2018-01-26T10:29:44.496Z,1012.3
2018-01-26T10:30:45.953Z,1012.3
2018-01-26T10:31:47.361Z,1012.4
2018-01-26T10:32:48.774Z,1012.4
2018-01-26T10:33:50.274Z,1012.4
2018-01-26T10:34:51.684Z,1012.4
2018-01-26T10:35:53.097Z,1012.4
2018-01-26T10:36:54.597Z,1012.4
2018-01-26T10:37:56.008Z,1012.4
2018-01-26T10:38:57.416Z,1012.4
2018-01-26T10:39:58.918Z,1012.3
2018-01-26T10:41:00.326Z,1012.4
2018-01-26T10:42:01.802Z,1012.5
2018-01-26T10:43:03.209Z,1012.5
2018-01-26T10:44:04.684Z,1012.4
2018-01-26T10:45:06.092Z,1012.4
2018-01-26T10:46:07.946Z,1012.5
2018-01-26T10:47:09.356Z,1012.5
2018-01-26T10:48:10.857Z,1012.5
2018-01-26T10:49:12.266Z,1012.5
2018-01-26T10:50:13.735Z,1012.5
2018-01-26T10:51:15.143Z,1012.6
2018-01-26T10:52:16.615Z,1012.6
2018-01-26T10:53:18.028Z,1012.5
2018-01-26T10:54:19.496Z,1012.6
2018-01-26T10:55:20.926Z,1012.6
2018-01-26T10:56:22.376Z,1012.6
2018-01-26T10:57:23.788Z,1012.6
2018-01-26T10:58:25.262Z,1012.6
2018-01-26T10:59:26.668Z,1012.6
2018-01-26T11:00:28.158Z,1012.7
2018-01-26T11:01:29.550Z,1012.6
2018-01-26T11:02:31.020Z,1012.6
2018-01-26T11:03:33.188Z,1012.6
2018-01-26T11:04:34.720Z,1012.6
2018-01-26T11:05:36.130Z,1012.6
2018-01-26T11:06:37.600Z,1012.7
2018-01-26T11:07:39.011Z,1012.6
2018-01-26T11:08:40.479Z,1012.7
2018-01-26T11:09:41.890Z,1012.7
2018-01-26T11:10:43.363Z,1012.8
2018-01-26T11:11:44.770Z,1012.8
2018-01-26T11:12:46.246Z,1012.8
2018-01-26T11:13:47.654Z,1012.8
2018-01-26T11:14:49.062Z,1012.7
2018-01-26T11:15:50.566Z,1012.7
2018-01-26T11:16:51.976Z,1012.7
2018-01-26T11:17:53.382Z,1012.8
2018-01-26T11:18:54.887Z,1012.8
2018-01-26T11:19:56.294Z,1012.9
2018-01-26T11:20:57.702Z,1012.9
2018-01-26T11:21:59.209Z,1012.9
2018-01-26T11:23:00.631Z,1012.9
2018-01-26T11:24:02.091Z,1012.9
2018-01-26T11:25:03.503Z,1012.9
2018-01-26T11:26:04.910Z,1012.9
2018-01-26T11:27:06.826Z,1012.9
2018-01-26T11:28:08.248Z,1012.9
2018-01-26T11:29:09.655Z,1012.9
2018-01-26T11:30:11.144Z,1012.9
2018-01-26T11:31:12.553Z,1013.0
2018-01-26T11:32:13.959Z,1012.9
2018-01-26T11:33:15.464Z,1012.9
2018-01-26T11:34:16.874Z,1012.8
2018-01-26T11:35:18.283Z,1012.9
2018-01-26T11:36:19.787Z,1012.9
2018-01-26T11:37:21.197Z,1012.8
2018-01-26T11:38:22.983Z,1012.8
2018-01-26T11:39:24.509Z,1012.8
2018-01-26T11:40:26.297Z,1012.7
2018-01-26T11:41:27.706Z,1012.8
2018-01-26T11:42:29.249Z,1012.8
2018-01-26T11:43:30.662Z,1012.9
2018-01-26T11:44:32.131Z,1012.9
2018-01-26T11:45:33.542Z,1012.9
2018-01-26T11:46:34.948Z,1013.0
2018-01-26T11:47:36.834Z,1013.0
2018-01-26T11:48:38.243Z,1012.9
2018-01-26T11:49:39.650Z,1013.0
2018-01-26T11:50:41.183Z,1013.0
2018-01-26T11:51:42.984Z,1013.0
2018-01-26T11:52:44.473Z,1013.0
2018-01-26T11:53:45.883Z,1013.0
2018-01-26T11:54:47.368Z,1013.0
2018-01-26T11:55:48.824Z,1013.1
2018-01-26T11:56:50.235Z,1013.1
2018-01-26T11:57:51.645Z,1013.1
2018-01-26T11:58:53.116Z,1013.1
2018-01-26T11:59:54.525Z,1013.1
2018-01-26T12:00:55.933Z,1013.1
2018-01-26T12:01:57.438Z,1013.1
2018-01-26T12:02:58.847Z,1013.1
2018-01-26T12:04:00.261Z,1013.1
2018-01-26T12:05:01.760Z,1013.1
2018-01-26T12:06:03.170Z,1013.1
2018-01-26T12:07:04.615Z,1013.1
2018-01-26T12:08:06.081Z,1013.1
2018-01-26T12:09:07.491Z,1013.1
2018-01-26T12:10:08.899Z,1013.1
2018-01-26T12:11:10.405Z,1013.2
2018-01-26T12:12:11.814Z,1013.2
2018-01-26T12:13:13.226Z,1013.1
2018-01-26T12:14:14.730Z,1013.1
2018-01-26T12:15:16.132Z,1013.2
2018-01-26T12:16:17.546Z,1013.1
2018-01-26T12:17:19.046Z,1013.2
2018-01-26T12:18:20.456Z,1013.2
2018-01-26T12:19:21.868Z,1013.1
2018-01-26T12:20:23.368Z,1013.2
2018-01-26T12:21:24.778Z,1013.2
2018-01-26T12:22:26.262Z,1013.2
2018-01-26T12:23:27.656Z,1013.2
2018-01-26T12:24:29.131Z,1013.2
2018-01-26T12:25:30.545Z,1013.2
2018-01-26T12:26:32.012Z,1013.2
2018-01-26T12:27:33.427Z,1013.1
2018-01-26T12:28:34.893Z,1013.2
2018-01-26T12:29:36.301Z,1013.1
2018-01-26T12:30:37.775Z,1013.2
2018-01-26T12:31:39.184Z,1013.2
2018-01-26T12:32:40.655Z,1013.2
2018-01-26T12:33:42.064Z,1013.2
2018-01-26T12:34:43.538Z,1013.2
2018-01-26T12:35:44.945Z,1013.2
2018-01-26T12:36:46.417Z,1013.1
2018-01-26T12:37:47.825Z,1013.2
2018-01-26T12:38:49.310Z,1013.2
2018-01-26T12:39:51.098Z,1013.2
2018-01-26T12:40:52.601Z,1013.2
2018-01-26T12:41:54.011Z,1013.2
2018-01-26T12:42:55.483Z,1013.2
2018-01-26T12:43:56.892Z,1013.2
2018-01-26T12:44:58.362Z,1013.2
2018-01-26T12:46:00.148Z,1013.2
2018-01-26T12:47:01.653Z,1013.2